Time;durP1;ratioP1;P1;durP2;ratioP2;P2;SDS_P1;SDS_P2;PMS_P1;PMS_P2;Temp;Humidity;BMP_temperature;BMP_pressure;BME280_temperature;BME280_humidity;BME280_pressure;Samples;Min_cycle;Max_cycle;Signal;HPM_P1;HPM_P2
2022/11/11 00:01:27;;;;;;;24.58;12.95;;;;;;;11.32;100.00;102835.19;5017938;28;20030;-66
2022/11/11 00:03:55;;;;;;;29.85;13.52;;;;;;;11.32;100.00;102827.28;5027928;28;20017;-66
2022/11/11 00:06:20;;;;;;;29.27;14.27;;;;;;;11.24;100.00;102829.97;5025882;28;20052;-66
2022/11/11 00:08:47;;;;;;;30.02;15.43;;;;;;;11.35;100.00;102829.91;5027595;28;20491;-67
2022/11/11 00:11:13;;;;;;;29.27;14.88;;;;;;;11.23;100.00;102837.91;5026950;28;20021;-66
2022/11/11 00:13:39;;;;;;;26.40;14.70;;;;;;;11.26;100.00;102827.34;5027080;28;20555;-65
2022/11/11 00:16:05;;;;;;;28.58;15.38;;;;;;;11.23;100.00;102836.13;5026236;28;20550;-66
2022/11/11 00:26:42;;;;;;;32.30;16.27;;;;;;;11.11;100.00;102825.63;5027815;28;20112;-67
2022/11/11 00:29:07;;;;;;;27.13;16.35;;;;;;;11.13;100.00;102826.50;5016769;28;20057;-67
2022/11/11 00:31:34;;;;;;;32.65;16.23;;;;;;;11.12;100.00;102825.63;5007700;28;20062;-65
2022/11/11 00:33:59;;;;;;;37.53;18.85;;;;;;;11.08;100.00;102820.38;5007185;28;20537;-64
2022/11/11 00:36:25;;;;;;;29.08;16.73;;;;;;;11.00;100.00;102812.47;5007685;28;20112;-67
2022/11/11 00:38:51;;;;;;;35.50;17.73;;;;;;;11.05;100.00;102809.81;5008176;28;20052;-64
2022/11/11 00:41:21;;;;;;;38.38;19.50;;;;;;;10.98;100.00;102809.84;5007545;28;20103;-65
2022/11/11 00:43:47;;;;;;;33.95;18.17;;;;;;;10.98;100.00;102804.56;5007195;28;20080;-65
2022/11/11 00:51:42;;;;;;;38.70;19.55;;;;;;;10.99;100.00;102805.47;5006283;28;20072;-65
2022/11/11 00:54:08;;;;;;;33.67;19.40;;;;;;;10.97;100.00;102808.09;5007351;28;20104;-67
2022/11/11 00:56:35;;;;;;;37.85;20.92;;;;;;;10.97;100.00;102791.38;5011455;28;20041;-64
2022/11/11 00:59:01;;;;;;;42.90;20.15;;;;;;;10.97;100.00;102797.56;5026523;28;20022;-65
2022/11/11 01:01:26;;;;;;;40.63;21.70;;;;;;;10.95;100.00;102806.34;5025849;28;20049;-66
2022/11/11 01:03:52;;;;;;;38.40;21.00;;;;;;;10.92;100.00;102811.63;5027683;28;20033;-66
2022/11/11 01:06:17;;;;;;;40.88;20.45;;;;;;;10.91;100.00;102813.41;5026234;28;20075;-67
2022/11/11 01:08:43;;;;;;;41.63;19.92;;;;;;;10.90;100.00;102798.47;5027049;28;20408;-66
2022/11/11 01:11:15;;;;;;;35.72;20.63;;;;;;;10.93;100.00;102805.47;5027043;28;20029;-66
2022/11/11 01:13:41;;;;;;;36.58;20.92;;;;;;;10.87;100.00;102794.06;5025937;28;20057;-64
2022/11/11 01:16:11;;;;;;;40.67;20.90;;;;;;;10.83;100.00;102792.31;5026762;28;20492;-67
2022/11/11 01:18:36;;;;;;;35.58;21.33;;;;;;;10.92;100.00;102798.44;5027705;28;20060;-66
2022/11/11 01:21:06;;;;;;;39.08;20.77;;;;;;;10.87;100.00;102796.69;5028178;28;20033;-65
2022/11/11 01:23:33;;;;;;;41.30;21.75;;;;;;;10.86;100.00;102800.22;5029723;28;20491;-65
2022/11/11 01:26:03;;;;;;;40.95;22.08;;;;;;;10.88;100.00;102800.22;5031067;28;20022;-66
2022/11/11 01:28:29;;;;;;;46.15;22.20;;;;;;;10.90;100.00;102800.22;5023925;28;20699;-66
2022/11/11 01:31:00;;;;;;;42.85;21.30;;;;;;;10.86;100.00;102800.22;5010657;28;20097;-65
2022/11/11 01:33:25;;;;;;;35.55;20.83;;;;;;;10.83;100.00;102800.22;5010057;28;20018;-64
2022/11/11 01:35:51;;;;;;;36.50;22.40;;;;;;;10.82;100.00;102801.13;5010633;28;20431;-64
2022/11/11 01:38:16;;;;;;;45.25;22.38;;;;;;;10.76;100.00;102797.63;5010713;28;20441;-65
2022/11/11 01:40:46;;;;;;;43.17;23.33;;;;;;;10.78;100.00;102798.50;5011456;28;20049;-65
2022/11/11 01:43:12;;;;;;;43.60;23.00;;;;;;;10.76;100.00;102806.41;5010120;28;20508;-64
2022/11/11 01:45:51;;;;;;;42.05;23.17;;;;;;;10.65;100.00;102811.69;5010923;28;20029;-65
2022/11/11 01:51:35;;;;;;;47.53;23.55;;;;;;;10.75;100.00;102817.84;5009022;28;20099;-66
2022/11/11 01:54:03;;;;;;;41.58;22.55;;;;;;;10.77;100.00;102810.78;5009271;28;20030;-68
2022/11/11 01:56:29;;;;;;;46.63;23.63;;;;;;;10.80;100.00;102804.63;5009342;28;20025;-65
2022/11/11 01:58:57;;;;;;;42.85;23.25;;;;;;;10.77;100.00;102802.03;5009369;28;20030;-64
2022/11/11 02:01:22;;;;;;;46.03;23.33;;;;;;;10.76;100.00;102798.50;5007928;28;20068;-65
2022/11/11 02:06:33;;;;;;;55.78;24.05;;;;;;;10.74;100.00;102794.97;5022489;28;20071;-65
2022/11/11 02:08:59;;;;;;;48.35;23.98;;;;;;;10.74;100.00;102792.34;5008599;28;20472;-65
2022/11/11 02:16:53;;;;;;;43.65;23.00;;;;;;;10.76;100.00;102798.50;5010755;28;20490;-66
2022/11/11 02:19:23;;;;;;;44.47;24.48;;;;;;;10.78;100.00;102798.50;5008421;28;20113;-64
2022/11/11 02:21:55;;;;;;;51.83;23.40;;;;;;;10.67;100.00;102793.25;5005307;28;20164;-67
2022/11/11 02:24:21;;;;;;;51.45;24.45;;;;;;;10.70;100.00;102795.88;4998162;28;20037;-66
2022/11/11 02:26:47;;;;;;;45.30;24.42;;;;;;;10.74;100.00;102800.25;5009841;28;20113;-66
2022/11/11 02:29:16;;;;;;;41.00;23.90;;;;;;;10.75;100.00;102799.38;5006069;28;20032;-67
2022/11/11 02:31:41;;;;;;;47.40;24.02;;;;;;;10.64;100.00;102787.97;5018500;28;20029;-66
2022/11/11 02:34:06;;;;;;;40.65;22.83;;;;;;;10.69;100.00;102802.03;5012669;28;20136;-64
2022/11/11 02:36:32;;;;;;;42.60;23.92;;;;;;;10.74;100.00;102801.13;5009013;28;20053;-65
2022/11/11 02:38:58;;;;;;;47.50;23.52;;;;;;;10.79;100.00;102797.59;5016810;28;20044;-65
2022/11/11 02:44:07;;;;;;;46.10;24.23;;;;;;;10.66;100.00;102794.13;5021013;28;20045;-66
2022/11/11 02:46:32;;;;;;;44.67;25.23;;;;;;;10.69;100.00;102797.63;5009641;28;20029;-67
2022/11/11 02:48:58;;;;;;;45.80;25.85;;;;;;;10.72;100.00;102802.03;5008442;28;20034;-65
2022/11/11 02:51:23;;;;;;;56.85;25.27;;;;;;;10.72;100.00;102794.13;5008831;28;20024;-64
2022/11/11 02:53:48;;;;;;;48.90;27.13;;;;;;;10.75;100.00;102799.38;5009142;28;20384;-66
2022/11/11 02:57:05;;;;;;;46.22;24.83;;;;;;;10.77;100.00;102799.38;5008971;28;20395;-65
2022/11/11 02:58:59;;;;;;;41.35;23.83;;;;;;;10.70;100.00;102791.50;5014375;28;20043;-64
2022/11/11 03:01:24;;;;;;;50.55;25.10;;;;;;;10.69;100.00;102788.84;5029092;28;20112;-64
2022/11/11 03:03:50;;;;;;;47.45;24.92;;;;;;;10.65;100.00;102789.75;5027912;28;20095;-64
2022/11/11 03:06:15;;;;;;;44.22;24.42;;;;;;;10.63;100.00;102788.88;5028612;28;20038;-64
2022/11/11 03:08:40;;;;;;;47.17;23.70;;;;;;;10.68;100.00;102797.63;5028351;28;20021;-66
2022/11/11 03:11:06;;;;;;;44.08;23.95;;;;;;;10.71;100.00;102795.88;5028431;28;20021;-66
2022/11/11 03:13:31;;;;;;;46.30;24.38;;;;;;;10.78;100.00;102798.50;5027918;28;20072;-65
2022/11/11 03:15:56;;;;;;;48.33;25.23;;;;;;;10.71;100.00;102792.34;5028044;28;20036;-65
2022/11/11 03:18:22;;;;;;;42.65;22.98;;;;;;;10.63;100.00;102799.41;5027686;28;20029;-66
2022/11/11 03:21:05;;;;;;;44.10;23.25;;;;;;;10.66;100.00;102802.03;5019415;28;20065;-66
2022/11/11 03:23:31;;;;;;;40.75;23.42;;;;;;;10.66;100.00;102807.31;5008494;28;20113;-66
2022/11/11 03:25:56;;;;;;;44.00;23.58;;;;;;;10.70;100.00;102809.06;5008616;28;20030;-64
2022/11/11 03:28:23;;;;;;;44.13;23.92;;;;;;;10.71;100.00;102805.53;5008372;28;20026;-65
2022/11/11 03:30:49;;;;;;;51.08;24.13;;;;;;;10.83;100.00;102808.13;5008745;28;20123;-67
2022/11/11 03:33:16;;;;;;;50.85;22.52;;;;;;;10.80;100.00;102802.88;5007783;28;20113;-65
2022/11/11 03:35:42;;;;;;;44.75;23.17;;;;;;;10.80;100.00;102808.16;5008683;28;20030;-66
2022/11/11 03:38:22;;;;;;;47.25;22.48;;;;;;;10.81;100.00;102812.53;5007230;28;20029;-66
2022/11/11 03:40:52;;;;;;;45.70;23.55;;;;;;;10.74;100.00;102814.31;5008938;28;20053;-64
2022/11/11 03:43:19;;;;;;;48.22;23.40;;;;;;;10.70;100.00;102806.41;5008038;28;20022;-66
2022/11/11 03:45:44;;;;;;;44.10;22.88;;;;;;;10.69;100.00;102808.16;5008629;28;20033;-65
2022/11/11 03:48:10;;;;;;;42.95;22.38;;;;;;;10.68;100.00;102816.09;5008233;28;20025;-66
2022/11/11 03:50:36;;;;;;;42.17;23.42;;;;;;;10.63;100.00;102821.41;5008801;28;20034;-67
2022/11/11 03:53:01;;;;;;;41.03;22.90;;;;;;;10.70;100.00;102819.59;5007187;28;20060;-66
2022/11/11 03:55:27;;;;;;;39.00;22.85;;;;;;;10.67;100.00;102819.63;5008659;28;20099;-66
2022/11/11 03:57:53;;;;;;;46.28;24.10;;;;;;;10.66;100.00;102828.41;5005896;28;20029;-66
2022/11/11 04:00:21;;;;;;;39.95;22.63;;;;;;;10.60;100.00;102838.06;5008089;28;20022;-66
2022/11/11 04:11:05;;;;;;;42.00;23.13;;;;;;;10.65;100.00;102839.84;5008444;28;20145;-67
2022/11/11 04:16:15;;;;;;;41.47;23.92;;;;;;;10.80;100.00;102839.78;5007709;28;20041;-64
2022/11/11 04:21:42;;;;;;;47.55;25.20;;;;;;;10.82;100.00;102832.75;5008385;28;20603;-64
2022/11/11 04:27:00;;;;;;;42.10;23.17;;;;;;;10.87;100.00;102827.47;5026533;28;20099;-66
2022/11/11 04:29:29;;;;;;;40.10;23.55;;;;;;;10.83;100.00;102821.31;5009059;28;20427;-66
2022/11/11 04:34:46;;;;;;;40.65;23.92;;;;;;;10.71;100.00;102806.41;5027252;28;20060;-64
2022/11/11 04:37:11;;;;;;;41.80;23.65;;;;;;;10.74;100.00;102809.06;5026710;28;20098;-66
2022/11/11 04:42:21;;;;;;;44.67;24.20;;;;;;;10.56;100.00;102795.91;5027268;28;20091;-65
2022/11/11 04:47:30;;;;;;;43.60;25.20;;;;;;;10.64;100.00;102794.13;5027021;28;20115;-66
2022/11/11 04:49:56;;;;;;;45.55;24.27;;;;;;;10.52;100.00;102781.88;5026750;28;20480;-65
2022/11/11 04:52:30;;;;;;;38.85;23.33;;;;;;;10.52;100.00;102781.88;5022844;28;20486;-65
2022/11/11 04:57:46;;;;;;;39.28;23.67;;;;;;;10.40;100.00;102789.75;5008582;28;20116;-66
2022/11/11 05:00:17;;;;;;;37.30;22.83;;;;;;;10.43;100.00;102795.03;5010723;28;20111;-65
2022/11/11 05:05:27;;;;;;;44.00;23.40;;;;;;;10.30;100.00;102800.31;4991868;28;20129;-66
2022/11/11 05:10:36;;;;;;;35.35;22.45;;;;;;;10.35;100.00;102803.81;4991884;28;20403;-65
2022/11/11 05:21:21;;;;;;;40.80;22.13;;;;;;;10.29;100.00;102802.97;5006813;28;20527;-63
2022/11/11 05:26:34;;;;;;;40.22;21.98;;;;;;;10.30;100.00;102805.56;5008058;28;20048;-67
2022/11/11 05:29:00;;;;;;;36.38;20.95;;;;;;;10.29;100.00;102811.72;5009080;28;20034;-67
2022/11/11 05:31:26;;;;;;;45.28;22.48;;;;;;;10.38;100.00;102812.63;5010162;28;20478;-65
2022/11/11 05:33:52;;;;;;;42.45;21.88;;;;;;;10.46;100.00;102821.41;5010063;28;20034;-66
2022/11/11 05:36:17;;;;;;;39.13;21.27;;;;;;;10.42;100.00;102819.63;5010127;28;20028;-66
2022/11/11 05:38:43;;;;;;;35.25;20.73;;;;;;;10.44;100.00;102821.38;5010049;28;20038;-65
2022/11/11 05:41:08;;;;;;;34.72;19.40;;;;;;;10.42;100.00;102822.28;5010190;28;20080;-65
2022/11/11 05:43:34;;;;;;;38.90;22.13;;;;;;;10.42;100.00;102824.91;5009484;28;20022;-66
2022/11/11 05:45:59;;;;;;;34.83;21.80;;;;;;;10.36;100.00;102826.66;5009517;28;20021;-64
2022/11/11 05:48:24;;;;;;;35.05;21.20;;;;;;;10.42;100.00;102827.53;5010132;28;20026;-65
2022/11/11 05:50:50;;;;;;;42.15;22.42;;;;;;;10.49;100.00;102829.31;5011005;28;20046;-66
2022/11/11 05:53:15;;;;;;;37.67;19.95;;;;;;;10.45;100.00;102830.19;5010261;28;20042;-66
2022/11/11 05:55:40;;;;;;;35.97;20.25;;;;;;;10.42;100.00;102825.75;5010502;28;20072;-64
2022/11/11 05:58:06;;;;;;;34.60;20.15;;;;;;;10.41;100.00;102829.28;5009262;28;20037;-65
2022/11/11 06:00:31;;;;;;;40.25;22.27;;;;;;;10.36;100.00;102826.66;5009732;28;20026;-65
2022/11/11 06:03:04;;;;;;;36.10;21.02;;;;;;;10.42;100.00;102827.53;5008631;28;20033;-65
2022/11/11 06:05:30;;;;;;;40.15;20.60;;;;;;;10.39;100.00;102831.06;5010429;28;20022;-65
2022/11/11 06:07:55;;;;;;;39.50;22.05;;;;;;;10.42;100.00;102830.19;5008826;28;20029;-67
2022/11/11 06:10:29;;;;;;;30.90;20.38;;;;;;;10.40;100.00;102831.94;5010363;28;20646;-66
2022/11/11 06:13:04;;;;;;;36.50;21.23;;;;;;;10.42;100.00;102831.03;5009685;28;20051;-65
2022/11/11 06:15:33;;;;;;;43.20;22.55;;;;;;;10.47;100.00;102828.44;5009923;28;20025;-65
2022/11/11 06:17:59;;;;;;;33.42;22.27;;;;;;;10.49;100.00;102831.94;5010041;28;20073;-67
2022/11/11 06:20:25;;;;;;;38.65;20.75;;;;;;;10.46;100.00;102831.94;5009872;28;20018;-64
2022/11/11 06:22:56;;;;;;;37.35;22.02;;;;;;;10.38;100.00;102833.69;5010171;28;20053;-66
2022/11/11 06:28:10;;;;;;;34.17;21.40;;;;;;;10.44;100.00;102824.00;5009254;28;20126;-66
2022/11/11 06:30:36;;;;;;;33.08;20.52;;;;;;;10.43;100.00;102830.19;5008710;28;20515;-65
2022/11/11 06:33:01;;;;;;;29.40;19.05;;;;;;;10.38;100.00;102833.69;5009450;28;20034;-66
2022/11/11 06:35:26;;;;;;;42.50;20.38;;;;;;;10.43;100.00;102832.81;5010200;28;20046;-67
2022/11/11 06:37:52;;;;;;;41.92;21.17;;;;;;;10.41;100.00;102838.97;5010280;28;20061;-66
2022/11/11 06:40:17;;;;;;;38.03;21.08;;;;;;;10.33;100.00;102855.63;5002383;28;20060;-64
2022/11/11 06:42:43;;;;;;;32.72;21.80;;;;;;;10.39;100.00;102851.25;5009747;28;20049;-67
2022/11/11 06:45:09;;;;;;;34.03;20.67;;;;;;;10.42;100.00;102859.16;5010335;28;20029;-64
2022/11/11 06:47:34;;;;;;;30.25;19.65;;;;;;;10.43;100.00;102861.81;5006204;28;20026;-65
2022/11/11 06:49:59;;;;;;;35.00;20.55;;;;;;;10.46;100.00;102858.31;5010514;28;20033;-64
2022/11/11 06:52:24;;;;;;;32.90;20.85;;;;;;;10.36;100.00;102849.50;5010729;28;20030;-65
2022/11/11 06:54:50;;;;;;;37.38;20.50;;;;;;;10.29;100.00;102859.16;5010075;28;20029;-65
2022/11/11 06:57:15;;;;;;;30.83;20.25;;;;;;;10.21;100.00;102859.16;5009148;28;20034;-67
2022/11/11 06:59:40;;;;;;;35.67;20.35;;;;;;;10.18;100.00;102860.94;5010626;28;20025;-66
2022/11/11 07:02:11;;;;;;;36.75;21.35;;;;;;;10.20;100.00;102854.78;5009311;28;20026;-65
2022/11/11 07:04:37;;;;;;;37.25;21.45;;;;;;;10.19;100.00;102862.69;5008721;28;20037;-65
2022/11/11 07:07:02;;;;;;;36.38;21.60;;;;;;;10.21;100.00;102871.47;5009565;28;20026;-66
2022/11/11 07:09:28;;;;;;;34.33;20.73;;;;;;;10.21;100.00;102874.09;5011312;28;20033;-66
2022/11/11 07:11:53;;;;;;;34.47;20.02;;;;;;;10.27;100.00;102868.84;5010290;28;20061;-66
2022/11/11 07:14:18;;;;;;;40.53;21.02;;;;;;;10.28;100.00;102874.97;5009431;28;20477;-64
2022/11/11 07:16:44;;;;;;;34.03;20.30;;;;;;;10.28;100.00;102870.59;5009698;28;20092;-65
2022/11/11 07:19:09;;;;;;;32.50;20.13;;;;;;;10.27;100.00;102879.38;4990551;28;20061;-66
2022/11/11 07:21:34;;;;;;;34.35;20.27;;;;;;;10.31;100.00;102873.22;4993793;28;20022;-66
2022/11/11 07:24:00;;;;;;;33.83;20.70;;;;;;;10.26;100.00;102884.66;5004548;28;20033;-65
2022/11/11 07:26:25;;;;;;;39.80;21.02;;;;;;;10.36;100.00;102879.34;4996836;28;20018;-64
2022/11/11 07:28:50;;;;;;;35.80;19.83;;;;;;;10.42;100.00;102875.84;4998697;28;20084;-66
2022/11/11 07:31:16;;;;;;;32.42;19.35;;;;;;;10.44;100.00;102886.38;4997749;28;20022;-65
2022/11/11 07:33:41;;;;;;;31.08;19.00;;;;;;;10.46;100.00;102890.81;4992247;28;20033;-66
2022/11/11 07:36:06;;;;;;;35.22;19.38;;;;;;;10.42;100.00;102882.88;4998448;28;20033;-66
2022/11/11 07:38:32;;;;;;;28.23;18.38;;;;;;;10.51;100.00;102887.31;4995921;28;20019;-67
2022/11/11 07:40:57;;;;;;;29.83;19.00;;;;;;;10.49;100.00;102890.81;4998299;28;20105;-67
2022/11/11 07:43:24;;;;;;;34.45;18.48;;;;;;;10.46;100.00;102892.56;4996354;28;20064;-66
2022/11/11 07:45:49;;;;;;;27.48;18.52;;;;;;;10.50;100.00;102891.69;5003831;28;20387;-66
2022/11/11 07:48:15;;;;;;;31.67;18.30;;;;;;;10.51;100.00;102892.56;4999583;28;20310;-66
2022/11/11 07:50:40;;;;;;;27.10;18.17;;;;;;;10.59;100.00;102907.50;5000304;28;20041;-65
2022/11/11 07:53:05;;;;;;;27.65;17.42;;;;;;;10.61;100.00;102905.75;4999532;28;20468;-66
2022/11/11 07:55:31;;;;;;;32.95;17.08;;;;;;;10.68;100.00;102908.34;4998319;28;20539;-64
2022/11/11 07:57:56;;;;;;;29.15;17.17;;;;;;;10.70;100.00;102904.88;4987695;28;20030;-64
2022/11/11 08:00:23;;;;;;;28.33;16.90;;;;;;;10.73;100.00;102909.25;4987037;28;20460;-64
2022/11/11 08:02:49;;;;;;;33.33;16.35;;;;;;;10.74;100.00;102903.97;4997752;28;20030;-64
2022/11/11 08:05:14;;;;;;;27.83;16.13;;;;;;;10.80;100.00;102908.34;5008777;28;20025;-67
2022/11/11 08:07:41;;;;;;;25.38;15.55;;;;;;;10.78;100.00;102912.78;5002781;28;20042;-65
2022/11/11 08:10:07;;;;;;;30.67;17.30;;;;;;;10.73;100.00;102917.16;4993103;28;20037;-65
2022/11/11 08:15:17;;;;;;;27.20;16.73;;;;;;;10.95;100.00;102930.31;5005205;28;20107;-66
2022/11/11 08:17:42;;;;;;;28.08;16.75;;;;;;;10.97;100.00;102933.81;5005928;28;20025;-64
2022/11/11 08:20:09;;;;;;;22.77;16.30;;;;;;;10.93;100.00;102932.09;5004913;28;20029;-65
2022/11/11 08:22:41;;;;;;;22.58;16.55;;;;;;;10.95;100.00;102943.50;5008925;28;20032;-65
2022/11/11 08:25:12;;;;;;;29.58;16.38;;;;;;;10.98;100.00;102946.13;4998895;28;20422;-64
2022/11/11 08:27:38;;;;;;;23.20;15.73;;;;;;;11.05;100.00;102947.88;5005231;28;20487;-65
2022/11/11 08:30:05;;;;;;;29.98;16.73;;;;;;;11.17;100.00;102956.66;5007017;28;20018;-66
2022/11/11 08:32:30;;;;;;;28.13;15.57;;;;;;;11.11;100.00;102947.84;5005392;28;20076;-65
2022/11/11 08:34:56;;;;;;;20.13;15.30;;;;;;;11.26;100.00;102956.66;4998233;28;20026;-65
2022/11/11 08:37:21;;;;;;;27.52;15.98;;;;;;;11.31;100.00;102962.78;5008352;28;20025;-66
2022/11/11 08:39:46;;;;;;;24.40;15.23;;;;;;;11.20;100.00;102962.78;5006529;28;20304;-65
2022/11/11 08:42:12;;;;;;;24.45;15.43;;;;;;;11.28;100.00;102965.41;5002845;28;20033;-66
2022/11/11 08:44:37;;;;;;;24.13;15.38;;;;;;;11.24;100.00;102959.28;5005939;28;20084;-66
2022/11/11 08:47:02;;;;;;;26.50;16.45;;;;;;;11.27;100.00;102961.03;4992929;28;20041;-64
2022/11/11 08:49:28;;;;;;;27.45;15.38;;;;;;;11.40;100.00;102966.25;5017890;28;20341;-65
2022/11/11 08:51:53;;;;;;;22.58;15.27;;;;;;;11.41;100.00;102966.25;5003470;28;20030;-65
2022/11/11 08:54:18;;;;;;;26.65;15.40;;;;;;;11.36;100.00;102961.00;5005837;28;20050;-65
2022/11/11 08:56:44;;;;;;;21.15;14.50;;;;;;;11.43;100.00;102963.59;5003840;28;20069;-64
2022/11/11 08:59:09;;;;;;;24.27;14.48;;;;;;;11.46;100.00;102967.13;5005973;28;20042;-67
2022/11/11 09:01:35;;;;;;;21.17;14.80;;;;;;;11.56;100.00;102957.41;5001017;28;20060;-65
2022/11/11 09:04:00;;;;;;;27.77;15.05;;;;;;;11.54;100.00;102956.53;5003373;28;20029;-66
2022/11/11 09:06:27;;;;;;;21.27;14.35;;;;;;;11.55;100.00;102974.13;5000884;28;20366;-66
2022/11/11 09:08:52;;;;;;;26.00;15.05;;;;;;;11.60;100.00;102969.72;5003773;28;20030;-64
2022/11/11 09:11:18;;;;;;;26.45;14.38;;;;;;;11.50;100.00;102978.56;4997919;28;20560;-65
2022/11/11 09:13:45;;;;;;;20.80;13.88;;;;;;;11.61;100.00;102978.50;5005264;28;20630;-66
2022/11/11 09:16:10;;;;;;;24.80;14.95;;;;;;;11.58;100.00;102984.69;5000357;28;20025;-65
2022/11/11 09:18:35;;;;;;;23.65;14.35;;;;;;;11.70;100.00;102978.47;5001255;28;20197;-66
2022/11/11 09:21:02;;;;;;;19.90;13.70;;;;;;;11.86;100.00;102981.91;5004983;28;20093;-65
2022/11/11 09:23:27;;;;;;;22.42;13.93;;;;;;;11.84;100.00;102986.34;5006940;28;20017;-65
2022/11/11 09:25:52;;;;;;;27.50;13.60;;;;;;;11.98;100.00;102988.91;5007528;28;20491;-65
2022/11/11 09:28:18;;;;;;;25.00;13.80;;;;;;;12.09;100.00;102996.81;5006368;28;20543;-67
2022/11/11 09:30:43;;;;;;;20.08;13.48;;;;;;;12.10;100.00;102995.06;4993491;28;20627;-65
2022/11/11 09:33:11;;;;;;;22.67;13.05;;;;;;;11.92;100.00;102998.63;5006101;28;20559;-64
2022/11/11 09:35:36;;;;;;;18.08;12.82;;;;;;;12.02;100.00;102995.06;5006100;28;20026;-64
2022/11/11 09:38:02;;;;;;;19.45;13.25;;;;;;;12.06;100.00;103002.06;5003365;28;20369;-65
2022/11/11 09:40:54;;;;;;;17.67;12.43;;;;;;;12.12;100.00;102999.44;5004371;28;20033;-66
2022/11/11 09:43:37;;;;;;;19.38;12.35;;;;;;;12.13;100.00;103000.28;5005108;28;20080;-65
2022/11/11 09:46:29;;;;;;;16.70;12.48;;;;;;;12.08;100.00;103008.28;5006136;28;20038;-65
2022/11/11 09:49:11;;;;;;;20.70;13.13;;;;;;;12.24;100.00;103016.09;5007190;28;20044;-66
2022/11/11 09:51:50;;;;;;;26.10;12.60;;;;;;;12.15;100.00;103011.75;5007790;28;20030;-65
2022/11/11 09:54:16;;;;;;;;;;;;;;;12.18;100.00;103017.03;5006142;28;20029;-66
2022/11/11 09:56:43;;;;;;;20.90;12.32;;;;;;;12.18;100.00;103019.66;5006310;28;19913;-66
2022/11/11 09:59:17;;;;;;;21.00;12.73;;;;;;;12.12;100.00;103033.78;4988856;28;20488;-64
2022/11/11 10:01:46;;;;;;;18.45;12.70;;;;;;;11.99;100.00;103025.03;5007775;28;20065;-64
2022/11/11 10:04:41;;;;;;;23.48;13.02;;;;;;;12.07;100.00;103035.56;5005453;28;20022;-66
2022/11/11 10:07:13;;;;;;;21.25;12.00;;;;;;;12.00;100.00;103028.53;4988353;28;20037;-65
2022/11/11 10:09:54;;;;;;;15.32;11.60;;;;;;;12.12;100.00;103038.19;5006705;28;20022;-66
2022/11/11 10:12:22;;;;;;;17.45;11.88;;;;;;;12.19;100.00;103039.91;5006197;28;20260;-66
2022/11/11 10:14:50;;;;;;;18.60;12.43;;;;;;;12.19;100.00;103039.91;5008956;28;20050;-65
2022/11/11 10:17:24;;;;;;;18.88;12.40;;;;;;;12.29;100.00;103039.88;5008408;28;20610;-65
2022/11/11 10:20:05;;;;;;;26.30;11.98;;;;;;;12.37;100.00;103048.63;5009153;28;20464;-65
2022/11/11 10:22:34;;;;;;;17.00;12.15;;;;;;;12.36;100.00;103045.13;5007741;28;20050;-65
2022/11/11 10:25:11;;;;;;;19.33;11.95;;;;;;;12.16;100.00;103045.22;5008589;28;20373;-65
2022/11/11 10:27:39;;;;;;;16.30;11.50;;;;;;;12.26;100.00;103043.41;5013952;28;20587;-65
2022/11/11 10:30:25;;;;;;;17.00;11.93;;;;;;;12.29;100.00;103051.34;5027021;28;20029;-65
2022/11/11 10:33:14;;;;;;;19.73;11.20;;;;;;;12.33;100.00;103046.88;5026662;28;20395;-64
2022/11/11 10:35:40;;;;;;;17.08;11.10;;;;;;;12.33;100.00;103047.78;5028310;28;20455;-67
2022/11/11 10:38:08;;;;;;;14.65;10.55;;;;;;;12.36;100.00;103047.75;5027569;28;20069;-65
2022/11/11 10:40:41;;;;;;;18.27;10.90;;;;;;;12.49;100.00;103050.31;5028024;28;20494;-67
2022/11/11 10:43:18;;;;;;;14.75;10.60;;;;;;;12.43;100.00;103047.72;5027439;28;20468;-65
2022/11/11 10:45:55;;;;;;;17.73;10.38;;;;;;;12.33;100.00;103058.34;5028201;28;20379;-65
2022/11/11 10:48:36;;;;;;;18.13;10.75;;;;;;;12.40;100.00;103059.19;5014239;28;20034;-65
2022/11/11 10:51:02;;;;;;;16.65;10.52;;;;;;;12.33;100.00;103063.63;5004974;28;20072;-66
2022/11/11 10:54:05;;;;;;;17.42;11.25;;;;;;;12.35;100.00;103059.22;4991075;28;20044;-65
2022/11/11 10:56:34;;;;;;;17.00;11.35;;;;;;;12.38;100.00;103053.91;4987251;28;20030;-66
2022/11/11 10:59:10;;;;;;;14.20;10.45;;;;;;;12.40;100.00;103047.75;4993314;28;20044;-67
2022/11/11 11:01:40;;;;;;;20.17;10.82;;;;;;;12.51;100.00;103040.59;4991946;28;20019;-63
2022/11/11 11:04:14;;;;;;;17.80;10.48;;;;;;;12.56;100.00;103041.47;4998107;28;20535;-66
2022/11/11 11:06:43;;;;;;;18.80;11.00;;;;;;;12.64;100.00;103047.56;5006953;28;20029;-66
2022/11/11 11:10:13;;;;;;;17.77;10.55;;;;;;;12.76;100.00;103045.72;4995475;28;20433;-67
2022/11/11 11:12:44;;;;;;;14.45;9.40;;;;;;;12.91;100.00;103043.84;4921249;29;20476;-66
2022/11/11 11:15:13;;;;;;;14.90;10.23;;;;;;;12.95;100.00;103042.94;4936559;29;20087;-66
2022/11/11 11:17:52;;;;;;;17.83;10.27;;;;;;;12.94;100.00;103054.41;4957738;28;20509;-66
2022/11/11 11:20:20;;;;;;;19.02;10.57;;;;;;;12.96;100.00;103049.97;4997898;28;20034;-66
2022/11/11 11:22:48;;;;;;;14.38;10.23;;;;;;;13.02;100.00;103034.03;4994929;28;20044;-64
2022/11/11 11:25:14;;;;;;;13.55;9.70;;;;;;;13.06;100.00;103032.25;4996034;28;20469;-67
2022/11/11 11:27:39;;;;;;;14.90;9.88;;;;;;;12.98;100.00;103037.63;4998420;28;20026;-66
2022/11/11 11:30:20;;;;;;;14.40;10.38;;;;;;;12.91;100.00;103035.91;4990801;28;20014;-64
2022/11/11 11:32:56;;;;;;;14.13;9.35;;;;;;;13.05;100.00;103034.00;4993652;28;20024;-68
2022/11/11 11:35:36;;;;;;;13.98;9.13;;;;;;;13.08;100.00;103026.06;4989469;28;20038;-66
2022/11/11 11:38:02;;;;;;;15.35;9.35;;;;;;;13.07;100.00;103029.59;5001549;28;20030;-66
2022/11/11 11:40:50;;;;;;;11.13;8.40;;;;;;;13.04;100.00;103029.63;5004977;28;20483;-65
2022/11/11 11:43:24;;;;;;;18.25;9.65;;;;;;;13.00;100.00;103026.13;5003030;28;20165;-65
2022/11/11 11:45:55;;;;;;;12.75;8.88;;;;;;;13.01;100.00;103030.50;5004260;28;20060;-66
2022/11/11 11:48:36;;;;;;;13.63;8.63;;;;;;;12.81;100.00;103033.34;5004162;28;20525;-64
2022/11/11 11:51:30;;;;;;;17.85;9.35;;;;;;;12.63;100.00;103037.88;4999920;28;20032;-63
2022/11/11 11:54:13;;;;;;;19.55;9.68;;;;;;;12.62;100.00;103033.47;5005465;28;20502;-65
2022/11/11 11:56:41;;;;;;;17.00;9.27;;;;;;;12.82;100.00;103028.94;5005200;28;20148;-64
2022/11/11 11:59:19;;;;;;;12.68;8.68;;;;;;;13.00;100.00;103022.56;5003936;28;20418;-67
2022/11/11 12:01:53;;;;;;;11.10;7.70;;;;;;;13.43;100.00;103021.31;5005154;28;20052;-65
2022/11/11 12:04:52;;;;;;;11.98;7.30;;;;;;;13.83;100.00;103024.38;5004546;28;20026;-65
2022/11/11 12:07:32;;;;;;;12.85;7.75;;;;;;;13.86;100.00;103019.94;5005720;28;20030;-65
2022/11/11 12:10:06;;;;;;;;;;;;;;;14.13;100.00;103017.81;5006215;28;20028;-63
2022/11/11 12:12:50;;;;;;;12.68;7.10;;;;;;;14.68;100.00;103014.31;5002679;28;19967;-66
2022/11/11 12:15:25;;;;;;;11.40;6.68;;;;;;;15.18;98.21;103007.31;5004405;28;20025;-67
2022/11/11 12:18:06;;;;;;;11.43;6.55;;;;;;;15.39;96.33;103006.88;5004671;28;20045;-66
2022/11/11 12:20:50;;;;;;;14.60;7.05;;;;;;;16.01;94.53;103006.53;5003104;28;20018;-67
2022/11/11 12:23:24;;;;;;;11.05;6.22;;;;;;;16.50;92.08;103007.16;5004142;28;20392;-66
2022/11/11 12:26:30;;;;;;;8.05;5.70;;;;;;;16.53;90.73;103011.56;5002895;28;20586;-67
2022/11/11 12:29:02;;;;;;;15.27;6.53;;;;;;;16.87;89.24;103001.84;5003758;28;20036;-67